createdAt,value
2018-11-22T00:01:08.741Z,67.65
2018-11-22T00:03:37.974Z,68.00
2018-11-22T00:06:06.882Z,67.99
2018-11-22T00:08:36.036Z,67.87
2018-11-22T00:11:04.792Z,67.77
2018-11-22T00:13:33.674Z,67.60
2018-11-22T00:16:08.457Z,67.37
2018-11-22T00:18:37.361Z,67.48
2018-11-22T00:21:06.732Z,67.48
2018-11-22T00:23:36.868Z,67.38
2018-11-22T00:26:05.791Z,67.32
2018-11-22T00:28:34.705Z,67.42
2018-11-22T00:31:06.583Z,67.37
2018-11-22T00:33:35.489Z,67.09
2018-11-22T00:36:07.017Z,67.32
2018-11-22T00:38:36.140Z,67.49
2018-11-22T00:41:12.874Z,67.51
2018-11-22T00:43:41.806Z,67.70
2018-11-22T00:46:10.751Z,67.50
2018-11-22T00:48:39.345Z,67.60
2018-11-22T00:51:07.986Z,67.25
2018-11-22T00:53:38.670Z,67.02
2018-11-22T00:56:08.075Z,67.28
2018-11-22T00:58:37.321Z,67.42
2018-11-22T01:01:07.862Z,67.55
2018-11-22T01:03:36.716Z,67.41
2018-11-22T01:06:08.441Z,67.19
2018-11-22T01:08:37.329Z,67.49
2018-11-22T01:11:06.065Z,67.54
2018-11-22T01:13:41.092Z,67.77
2018-11-22T01:16:10.247Z,67.59
2018-11-22T01:18:42.629Z,67.43
2018-11-22T01:21:11.715Z,67.20
2018-11-22T01:23:40.328Z,67.39
2018-11-22T01:26:09.253Z,67.67
2018-11-22T01:28:38.367Z,67.25
2018-11-22T01:31:07.589Z,67.50
2018-11-22T01:33:36.510Z,67.19
2018-11-22T01:36:11.649Z,67.29
2018-11-22T01:38:40.571Z,67.34
2018-11-22T01:41:09.468Z,67.56
2018-11-22T01:43:45.043Z,67.62
2018-11-22T01:46:14.247Z,67.41
2018-11-22T01:48:43.272Z,67.35
2018-11-22T01:51:21.677Z,67.37
2018-11-22T01:53:53.334Z,67.70
2018-11-22T01:56:24.885Z,67.35
2018-11-22T01:58:53.686Z,67.25
2018-11-22T02:01:22.547Z,67.41
2018-11-22T02:03:51.452Z,67.69
2018-11-22T02:06:20.522Z,67.68
2018-11-22T02:08:50.124Z,67.24
2018-11-22T02:11:20.520Z,67.06
2018-11-22T02:13:49.487Z,66.75
2018-11-22T02:16:24.134Z,66.97
2018-11-22T02:18:53.022Z,67.57
2018-11-22T02:21:26.402Z,66.93
2018-11-22T02:23:55.312Z,67.16
2018-11-22T02:26:23.979Z,67.03
2018-11-22T02:28:53.393Z,67.42
2018-11-22T02:31:22.032Z,67.52
2018-11-22T02:33:53.751Z,67.10
2018-11-22T02:36:28.664Z,67.00
2018-11-22T02:38:57.561Z,67.12
2018-11-22T02:41:29.766Z,67.47
2018-11-22T02:43:58.843Z,67.48
2018-11-22T02:46:27.477Z,67.52
2018-11-22T02:48:56.463Z,67.50
2018-11-22T02:51:43.224Z,67.52
2018-11-22T02:54:14.156Z,67.21
2018-11-22T02:56:43.215Z,67.20
2018-11-22T02:59:11.849Z,67.32
2018-11-22T03:01:40.862Z,67.25
2018-11-22T03:04:09.453Z,67.10
2018-11-22T03:06:40.868Z,67.55
2018-11-22T03:09:11.199Z,67.59
2018-11-22T03:11:40.325Z,67.46
2018-11-22T03:14:09.141Z,67.68
2018-11-22T03:16:37.826Z,67.71
2018-11-22T03:19:06.546Z,67.44
2018-11-22T03:21:39.673Z,67.53
2018-11-22T03:24:06.659Z,67.70
2018-11-22T03:26:35.673Z,67.63
2018-11-22T03:29:05.388Z,67.65
2018-11-22T03:31:41.740Z,67.18
2018-11-22T03:34:10.647Z,66.91
2018-11-22T03:36:41.279Z,67.07
2018-11-22T03:39:10.567Z,67.09
2018-11-22T03:41:39.149Z,67.11
2018-11-22T03:44:08.323Z,67.26
2018-11-22T03:46:37.620Z,67.32
2018-11-22T03:49:06.377Z,67.28
2018-11-22T03:51:45.800Z,67.24
2018-11-22T03:54:06.455Z,67.15
2018-11-22T03:56:35.063Z,67.11
2018-11-22T03:59:07.055Z,67.50
2018-11-22T04:01:35.686Z,67.38
2018-11-22T04:04:13.106Z,67.38
2018-11-22T04:06:42.160Z,67.38
2018-11-22T04:09:12.125Z,66.89
2018-11-22T04:11:40.766Z,67.17
2018-11-22T04:14:10.133Z,67.15
2018-11-22T04:16:38.726Z,67.25
2018-11-22T12:17:55.671Z,44.56
2018-11-22T12:20:24.614Z,45.09
2018-11-22T12:22:57.727Z,44.97
2018-11-22T12:25:27.862Z,45.64
2018-11-22T12:28:01.494Z,45.81
2018-11-22T12:30:32.733Z,46.27
2018-11-22T12:35:07.996Z,46.62
2018-11-22T12:37:43.357Z,47.90
2018-11-22T12:40:11.935Z,47.85
2018-11-22T12:42:41.282Z,48.17
2018-11-22T12:48:04.984Z,47.88
2018-11-22T12:50:33.943Z,48.27
2018-11-22T12:53:02.933Z,47.74
2018-11-22T12:55:32.172Z,48.34
2018-11-22T12:58:01.124Z,48.35
2018-11-22T13:00:30.046Z,49.15
2018-11-22T13:02:59.450Z,49.35
2018-11-22T13:05:31.881Z,49.93
2018-11-22T13:08:00.978Z,50.34
2018-11-22T13:10:30.284Z,50.08
2018-11-22T13:12:59.250Z,50.80
2018-11-22T13:15:29.751Z,51.52
2018-11-22T13:18:09.102Z,51.61
2018-11-22T13:20:37.993Z,51.81
2018-11-22T13:23:07.112Z,51.89
2018-11-22T13:25:36.341Z,52.10
2018-11-22T13:28:06.400Z,52.16
2018-11-22T13:30:35.317Z,52.37
2018-11-22T13:33:08.496Z,52.79
2018-11-22T13:35:37.363Z,52.79
2018-11-22T13:38:06.801Z,53.28
2018-11-22T13:40:35.682Z,53.42
2018-11-22T13:43:09.272Z,52.86
2018-11-22T13:45:38.528Z,52.82
2018-11-22T13:48:07.360Z,53.10
2018-11-22T13:50:41.964Z,53.39
2018-11-22T13:53:06.955Z,53.71
2018-11-22T13:55:36.096Z,53.85
2018-11-22T13:58:05.997Z,54.47
2018-11-22T14:00:40.341Z,54.32
2018-11-22T14:03:09.272Z,54.58
2018-11-22T14:05:38.948Z,54.57
2018-11-22T14:08:07.809Z,54.49
2018-11-22T14:10:36.675Z,55.28
2018-11-22T14:13:05.713Z,54.57
2018-11-22T14:15:35.445Z,54.53
2018-11-22T14:18:06.533Z,54.06
2018-11-22T14:20:36.265Z,54.15
2018-11-22T14:23:05.373Z,54.42
2018-11-22T14:25:33.969Z,54.49
2018-11-22T14:28:09.396Z,54.49
2018-11-22T14:30:38.496Z,54.71
2018-11-22T14:33:07.554Z,54.99
2018-11-22T14:35:41.034Z,54.92
2018-11-22T14:38:09.958Z,55.56
2018-11-22T14:40:38.889Z,55.90
2018-11-22T14:43:08.073Z,55.72
2018-11-22T14:45:36.997Z,55.49
2018-11-22T14:48:11.953Z,55.78
2018-11-22T14:50:50.737Z,55.73
2018-11-22T14:53:21.177Z,55.98
2018-11-22T14:55:53.015Z,56.46
2018-11-22T14:58:21.839Z,55.99
2018-11-22T15:00:50.656Z,56.65
2018-11-22T15:03:19.807Z,56.89
2018-11-22T15:05:48.704Z,57.11
2018-11-22T15:08:17.708Z,57.46
2018-11-22T15:10:46.948Z,57.68
2018-11-22T15:13:15.934Z,57.88
2018-11-22T15:15:44.923Z,58.04
2018-11-22T15:18:13.879Z,58.20
2018-11-22T15:22:14.678Z,58.30
2018-11-22T15:24:43.766Z,58.61
2018-11-22T15:27:12.643Z,58.98
2018-11-22T15:29:41.534Z,59.19
2018-11-22T15:34:45.390Z,59.29
2018-11-22T15:37:14.479Z,59.68
2018-11-22T15:39:43.676Z,59.73
2018-11-22T15:42:12.552Z,59.89
2018-11-22T15:44:41.430Z,60.22
2018-11-22T15:47:10.553Z,60.54
2018-11-22T15:49:44.219Z,60.31
2018-11-22T15:52:13.079Z,60.56
2018-11-22T15:54:42.408Z,60.78
2018-11-22T15:57:11.207Z,61.21
2018-11-22T15:59:40.813Z,61.13
2018-11-22T16:02:09.993Z,61.49
2018-11-22T16:04:39.172Z,61.46
2018-11-22T16:07:08.044Z,61.96
2018-11-22T16:09:36.897Z,61.90
2018-11-22T16:12:06.772Z,62.05
2018-11-22T16:14:37.130Z,61.82
2018-11-22T16:17:06.376Z,62.30
2018-11-22T16:19:35.250Z,62.21
2018-11-22T16:22:11.036Z,62.35
2018-11-22T16:24:41.097Z,62.54
2018-11-22T16:27:10.036Z,62.20
2018-11-22T16:29:38.954Z,62.30
2018-11-22T16:32:11.898Z,62.13
2018-11-22T16:34:41.555Z,62.69
2018-11-22T16:37:16.121Z,62.48
2018-11-22T16:39:45.242Z,62.48
2018-11-22T16:42:14.179Z,62.80
2018-11-22T16:44:43.736Z,62.48
2018-11-22T16:47:13.029Z,62.94
2018-11-22T16:49:41.940Z,62.84
2018-11-22T16:52:11.134Z,62.85
2018-11-22T16:54:40.354Z,63.09
2018-11-22T16:57:12.131Z,63.22
2018-11-22T16:59:43.096Z,63.43
2018-11-22T17:02:14.765Z,63.41
2018-11-22T17:04:44.776Z,63.58
2018-11-22T17:07:19.743Z,63.87
2018-11-22T17:09:48.857Z,63.95
2018-11-22T17:12:19.606Z,63.97
2018-11-22T17:14:49.279Z,64.20
2018-11-22T17:17:20.344Z,64.28
2018-11-22T17:19:49.473Z,64.23
2018-11-22T17:22:18.683Z,64.47
2018-11-22T17:24:47.871Z,64.56
2018-11-22T17:27:16.744Z,64.42
2018-11-22T17:29:47.047Z,64.65
2018-11-22T17:32:19.776Z,64.79
2018-11-22T17:34:56.478Z,64.67
2018-11-22T17:37:25.730Z,64.67
2018-11-22T17:39:58.490Z,64.91
2018-11-22T17:42:27.413Z,64.93
2018-11-22T17:45:02.559Z,65.17
2018-11-22T17:47:32.875Z,65.28
2018-11-22T17:50:06.133Z,65.34
2018-11-22T17:52:37.292Z,65.53
2018-11-22T17:55:12.700Z,65.36
2018-11-22T17:57:43.464Z,65.55
2018-11-22T18:00:19.831Z,65.86
2018-11-22T18:02:50.077Z,65.91
2018-11-22T18:05:19.848Z,66.31
2018-11-22T18:07:48.711Z,66.19
2018-11-22T18:10:19.075Z,66.06
2018-11-22T18:12:48.901Z,66.43
2018-11-22T18:15:18.969Z,66.34
2018-11-22T18:17:48.018Z,66.31
2018-11-22T18:20:19.469Z,66.75
2018-11-22T18:22:49.077Z,66.84
2018-11-22T18:25:19.559Z,66.60
2018-11-22T18:30:33.858Z,66.77
2018-11-22T18:33:05.038Z,66.71
2018-11-22T18:35:33.960Z,66.86
2018-11-22T18:38:05.436Z,66.87
2018-11-22T18:40:36.912Z,66.90
2018-11-22T18:43:06.323Z,66.97
2018-11-22T18:45:36.833Z,67.17
2018-11-22T18:48:08.130Z,67.28
2018-11-22T18:50:41.098Z,67.30
2018-11-22T18:53:11.290Z,67.25
2018-11-22T18:55:39.246Z,67.70
2018-11-22T19:00:43.795Z,67.70
2018-11-22T19:03:14.232Z,67.97
2018-11-22T19:05:43.141Z,68.03
2018-11-22T19:08:12.033Z,68.05
2018-11-22T19:10:42.125Z,67.79
2018-11-22T19:13:11.959Z,67.64
2018-11-22T19:15:43.319Z,67.61
2018-11-22T19:18:13.433Z,67.81
2018-11-22T19:20:45.173Z,68.02
2018-11-22T19:23:14.528Z,68.06
2018-11-22T19:25:43.460Z,68.39
2018-11-22T19:28:12.472Z,68.39
2018-11-22T19:30:43.313Z,68.21
2018-11-22T19:33:13.813Z,68.36
2018-11-22T19:35:44.215Z,68.28
2018-11-22T19:38:13.577Z,68.41
2018-11-22T19:40:43.079Z,68.47
2018-11-22T19:43:12.387Z,68.55
2018-11-22T19:45:43.289Z,68.72
2018-11-22T19:48:12.321Z,68.93
2018-11-22T19:50:41.504Z,68.88
2018-11-22T19:53:12.328Z,68.75
2018-11-22T19:55:41.574Z,68.82
2018-11-22T19:58:11.970Z,68.93
2018-11-22T20:03:20.956Z,69.04
2018-11-22T20:05:49.941Z,69.48
2018-11-22T20:08:19.738Z,69.43
2018-11-22T20:10:56.012Z,69.39
2018-11-22T20:13:31.675Z,69.63
2018-11-22T20:16:00.920Z,69.75
2018-11-22T20:18:33.974Z,69.83
2018-11-22T20:21:03.102Z,69.73
2018-11-22T20:23:33.953Z,70.07
2018-11-22T20:26:04.110Z,70.30
2018-11-22T20:28:32.980Z,70.43
2018-11-22T20:31:02.994Z,70.38
2018-11-22T20:33:32.196Z,70.71
2018-11-22T20:36:01.201Z,70.93
2018-11-22T20:38:30.039Z,70.97
2018-11-22T20:40:59.278Z,71.25
2018-11-22T20:43:38.944Z,71.54
2018-11-22T20:46:08.250Z,71.24
2018-11-22T20:48:37.105Z,71.76
2018-11-22T20:51:07.173Z,71.38
2018-11-22T20:53:36.433Z,71.21
2018-11-22T20:56:06.714Z,71.33
2018-11-22T20:58:35.551Z,71.52
2018-11-22T21:03:44.499Z,71.70
2018-11-22T21:06:13.436Z,71.70
2018-11-22T21:08:48.424Z,72.44
2018-11-22T21:11:11.338Z,72.64
2018-11-22T21:13:40.613Z,72.72
2018-11-22T21:16:09.471Z,72.69
2018-11-22T21:18:38.442Z,72.81
2018-11-22T21:21:07.715Z,72.91
2018-11-22T21:23:36.553Z,72.85
2018-11-22T21:28:40.374Z,73.01
2018-11-22T21:31:12.488Z,72.85
2018-11-22T21:33:41.428Z,73.02
2018-11-22T21:36:10.579Z,72.92
2018-11-22T21:38:39.423Z,72.77
2018-11-22T21:41:08.248Z,72.83
2018-11-22T21:43:37.397Z,73.00
2018-11-22T21:46:36.686Z,72.89
2018-11-22T21:49:05.840Z,72.70
2018-11-22T21:51:39.389Z,72.73
2018-11-22T21:54:14.632Z,73.01
2018-11-22T21:56:43.790Z,73.04
2018-11-22T21:59:12.579Z,73.10
2018-11-22T22:01:41.412Z,72.75
2018-11-22T22:04:10.565Z,72.75
2018-11-22T22:06:45.510Z,73.07
2018-11-22T22:09:14.361Z,72.81
2018-11-22T22:11:43.592Z,73.20
2018-11-22T22:14:12.506Z,73.47
2018-11-22T22:16:41.535Z,73.46
2018-11-22T22:19:15.988Z,73.11
2018-11-22T22:21:45.571Z,73.17
2018-11-22T22:24:14.460Z,73.46
2018-11-22T22:26:43.557Z,73.46
2018-11-22T22:29:12.617Z,73.40
2018-11-22T22:31:52.434Z,73.52
2018-11-22T22:34:21.860Z,73.78
2018-11-22T22:36:50.691Z,73.57
2018-11-22T22:39:19.570Z,73.69
2018-11-22T22:41:48.721Z,73.46
2018-11-22T22:44:22.403Z,73.36
2018-11-22T22:46:52.626Z,73.65
2018-11-22T22:49:25.145Z,73.64
2018-11-22T22:51:53.996Z,73.73
2018-11-22T22:54:23.189Z,73.92
2018-11-22T22:56:52.303Z,74.05
2018-11-22T22:59:21.246Z,73.83
2018-11-22T23:01:50.375Z,74.10
2018-11-22T23:04:24.826Z,74.14
2018-11-22T23:06:53.833Z,74.71
2018-11-22T23:09:22.958Z,74.25
2018-11-22T23:11:51.803Z,74.88
2018-11-22T23:14:20.651Z,74.41
2018-11-22T23:16:49.794Z,75.00
2018-11-22T23:19:18.782Z,75.02
2018-11-22T23:21:48.382Z,74.99
2018-11-22T23:24:17.671Z,75.12
2018-11-22T23:26:58.522Z,75.24
2018-11-22T23:29:27.593Z,75.55
2018-11-22T23:31:56.802Z,74.88
2018-11-22T23:34:25.722Z,75.63
2018-11-22T23:36:54.849Z,75.86
2018-11-22T23:39:23.936Z,75.93
2018-11-22T23:41:53.342Z,76.00
2018-11-22T23:44:22.258Z,75.99
2018-11-22T23:46:53.724Z,76.32
2018-11-22T23:49:22.545Z,76.34
2018-11-22T23:51:57.060Z,76.49
2018-11-22T23:54:26.181Z,76.36
2018-11-22T23:56:59.692Z,76.29
2018-11-22T23:59:28.529Z,76.01
